Time;durP1;ratioP1;P1;durP2;ratioP2;P2;SDS_P1;SDS_P2;PMS_P1;PMS_P2;Temp;Humidity;BMP_temperature;BMP_pressure;BME280_temperature;BME280_humidity;BME280_pressure;Samples;Min_cycle;Max_cycle;Signal;HPM_P1;HPM_P2
2022/02/19 00:00:12;;;;;;;12.50;3.20;;;5.80;65.90;;;;;;4965614;28;21023;-78
2022/02/19 00:02:38;;;;;;;17.98;3.90;;;5.80;66.00;;;;;;4966220;28;20035;-77
2022/02/19 00:05:05;;;;;;;13.52;3.17;;;5.80;66.30;;;;;;4963626;28;20057;-77
2022/02/19 00:07:31;;;;;;;12.85;3.28;;;5.70;66.60;;;;;;4967928;28;20030;-80
2022/02/19 00:09:57;;;;;;;15.13;3.50;;;5.70;66.60;;;;;;4969151;28;20091;-78
2022/02/19 00:12:23;;;;;;;12.25;3.33;;;5.80;66.40;;;;;;4971730;28;20449;-77
2022/02/19 00:14:52;;;;;;;13.77;3.17;;;5.70;66.80;;;;;;4949283;28;20034;-78
2022/02/19 00:17:20;;;;;;;12.45;2.72;;;5.70;67.20;;;;;;4971043;28;20054;-77
2022/02/19 00:19:47;;;;;;;14.27;2.83;;;5.70;67.10;;;;;;4962843;28;20066;-77
2022/02/19 00:22:12;;;;;;;10.38;2.75;;;5.70;67.30;;;;;;4968167;28;20089;-76
2022/02/19 00:24:38;;;;;;;10.85;3.38;;;5.70;67.50;;;;;;4969534;28;20566;-77
2022/02/19 00:27:04;;;;;;;10.80;3.10;;;5.60;67.70;;;;;;4969838;28;20038;-77
2022/02/19 00:29:30;;;;;;;17.52;3.95;;;5.70;67.90;;;;;;4964282;28;20466;-78
2022/02/19 00:31:56;;;;;;;10.57;3.38;;;5.70;67.80;;;;;;4976854;28;20065;-77
2022/02/19 00:34:22;;;;;;;12.20;3.03;;;5.70;68.10;;;;;;4974157;28;20474;-78
2022/02/19 00:36:50;;;;;;;12.10;3.58;;;5.70;68.10;;;;;;4976175;28;20043;-77
2022/02/19 00:39:16;;;;;;;11.57;3.80;;;5.70;68.00;;;;;;4962968;28;20515;-78
2022/02/19 00:41:42;;;;;;;11.13;3.15;;;5.70;68.30;;;;;;4954324;28;20466;-78
2022/02/19 00:44:08;;;;;;;22.05;3.60;;;5.70;68.40;;;;;;4965819;28;20030;-78
2022/02/19 00:46:35;;;;;;;8.32;2.83;;;5.70;68.60;;;;;;4967740;28;20395;-77
2022/02/19 00:49:04;;;;;;;12.13;3.08;;;5.60;69.00;;;;;;4953172;28;20069;-78
2022/02/19 00:51:31;;;;;;;10.50;2.92;;;5.60;69.10;;;;;;4944530;28;20542;-78
2022/02/19 00:53:58;;;;;;;12.68;3.08;;;5.60;69.00;;;;;;4960758;28;20054;-79
2022/02/19 00:56:24;;;;;;;11.88;3.17;;;5.60;69.10;;;;;;4948695;28;20616;-77
2022/02/19 00:58:50;;;;;;;9.93;2.35;;;5.50;69.40;;;;;;4979780;28;20039;-79
2022/02/19 01:01:16;;;;;;;12.50;2.80;;;5.60;69.10;;;;;;4977714;28;20355;-80
2022/02/19 01:03:42;;;;;;;12.10;3.05;;;5.50;69.20;;;;;;4968751;28;20050;-80
2022/02/19 01:06:08;;;;;;;12.68;4.18;;;5.40;69.20;;;;;;4962267;28;20094;-78
2022/02/19 01:08:33;;;;;;;14.77;3.50;;;5.40;69.50;;;;;;4961354;28;20142;-78
2022/02/19 01:10:59;;;;;;;20.88;4.18;;;5.40;69.50;;;;;;4954697;28;20039;-77
2022/02/19 01:13:25;;;;;;;12.07;3.42;;;5.40;69.70;;;;;;4964961;28;20062;-79
2022/02/19 01:15:51;;;;;;;11.70;3.80;;;5.30;70.00;;;;;;4964851;28;20062;-77
2022/02/19 01:18:17;;;;;;;17.38;4.45;;;5.20;69.80;;;;;;4963492;28;20506;-77
2022/02/19 01:20:45;;;;;;;12.63;4.28;;;5.20;70.00;;;;;;4961311;28;20082;-77
2022/02/19 01:23:11;;;;;;;12.38;4.43;;;5.30;69.70;;;;;;4959209;28;20586;-78
2022/02/19 01:25:37;;;;;;;11.80;4.43;;;5.20;69.80;;;;;;4964749;28;20118;-76
2022/02/19 01:28:04;;;;;;;11.55;4.80;;;5.10;70.20;;;;;;4946614;28;20035;-77
2022/02/19 01:30:30;;;;;;;16.13;5.20;;;5.10;70.00;;;;;;4964932;28;20149;-80
2022/02/19 01:32:57;;;;;;;14.73;6.20;;;5.10;70.20;;;;;;4958760;28;20043;-78
2022/02/19 01:35:23;;;;;;;13.95;4.43;;;5.10;70.40;;;;;;4957234;28;20483;-81
2022/02/19 01:37:49;;;;;;;11.25;3.75;;;5.00;70.40;;;;;;4946250;28;20030;-80
2022/02/19 01:40:14;;;;;;;9.43;2.83;;;5.00;70.50;;;;;;4965256;28;20046;-78
2022/02/19 01:42:40;;;;;;;11.95;2.88;;;5.00;70.60;;;;;;4961266;28;20030;-78
2022/02/19 01:45:09;;;;;;;10.57;2.45;;;5.00;70.60;;;;;;4965667;28;20034;-79
2022/02/19 01:47:36;;;;;;;10.32;2.78;;;5.00;70.70;;;;;;4965487;28;20034;-78
2022/02/19 01:50:03;;;;;;;14.45;2.83;;;4.90;70.90;;;;;;4962501;28;20156;-80
2022/02/19 01:52:30;;;;;;;10.80;3.15;;;4.90;70.70;;;;;;4945072;28;20546;-79
2022/02/19 01:54:55;;;;;;;10.73;2.78;;;4.90;70.60;;;;;;4941650;28;20414;-78
2022/02/19 01:57:21;;;;;;;11.15;2.80;;;4.90;70.70;;;;;;4965146;28;20400;-78
2022/02/19 01:59:47;;;;;;;12.02;3.30;;;4.90;70.70;;;;;;4966730;28;20474;-81
2022/02/19 02:02:13;;;;;;;15.27;3.15;;;4.90;70.80;;;;;;4971515;28;20046;-78
2022/02/19 02:04:41;;;;;;;13.40;3.30;;;4.90;70.50;;;;;;4976452;28;20723;-81
2022/02/19 02:07:08;;;;;;;12.13;4.38;;;4.90;70.70;;;;;;4950259;28;20053;-79
2022/02/19 02:09:38;;;;;;;14.30;3.50;;;4.90;70.50;;;;;;4964897;28;20643;-79
2022/02/19 02:12:06;;;;;;;12.18;3.53;;;4.90;70.40;;;;;;4959443;28;20759;-80
2022/02/19 02:14:39;;;;;;;9.35;2.83;;;4.90;70.40;;;;;;4970886;28;20034;-79
2022/02/19 02:17:06;;;;;;;21.38;4.15;;;5.00;70.30;;;;;;4963552;28;20047;-77
2022/02/19 02:19:34;;;;;;;13.23;3.35;;;4.90;70.50;;;;;;4963329;28;20382;-77
2022/02/19 02:22:04;;;;;;;10.85;2.75;;;4.90;70.60;;;;;;4967398;28;20565;-79
2022/02/19 02:24:34;;;;;;;13.75;2.67;;;4.90;70.60;;;;;;4963183;28;20340;-78
2022/02/19 02:27:02;;;;;;;10.95;2.70;;;4.80;70.90;;;;;;4955971;28;20043;-78
2022/02/19 02:29:28;;;;;;;13.05;3.60;;;4.70;71.20;;;;;;4968189;28;20038;-79
2022/02/19 02:31:53;;;;;;;10.68;3.08;;;4.70;71.20;;;;;;4962646;28;20035;-79
2022/02/19 02:34:19;;;;;;;11.82;2.33;;;4.70;71.20;;;;;;4962491;28;20042;-78
2022/02/19 02:36:46;;;;;;;10.43;2.13;;;4.70;71.20;;;;;;4975528;28;20041;-78
2022/02/19 02:39:12;;;;;;;11.85;3.17;;;4.60;71.30;;;;;;4963226;28;20046;-80
2022/02/19 02:41:37;;;;;;;11.30;3.00;;;4.60;71.30;;;;;;4976471;28;20034;-78
2022/02/19 02:44:03;;;;;;;14.23;3.60;;;4.60;71.40;;;;;;4963427;28;20566;-78
2022/02/19 02:46:29;;;;;;;8.98;2.53;;;4.70;71.00;;;;;;4971232;28;20046;-78
2022/02/19 02:48:55;;;;;;;12.27;2.90;;;4.70;71.20;;;;;;4971870;28;20073;-80
2022/02/19 02:51:21;;;;;;;11.93;3.10;;;4.70;70.90;;;;;;4963594;28;20038;-78
2022/02/19 02:53:46;;;;;;;13.23;2.97;;;4.70;70.60;;;;;;4966274;28;20089;-80
2022/02/19 02:56:12;;;;;;;12.48;2.63;;;4.70;70.60;;;;;;4969819;28;20085;-79
2022/02/19 02:58:38;;;;;;;13.02;2.88;;;4.70;70.90;;;;;;4970554;28;20030;-79
2022/02/19 03:01:05;;;;;;;18.25;3.30;;;4.60;70.70;;;;;;4968571;28;20125;-79
2022/02/19 03:03:30;;;;;;;12.63;2.60;;;4.70;70.70;;;;;;4969047;28;20035;-80
2022/02/19 03:05:56;;;;;;;14.30;2.90;;;4.70;70.80;;;;;;4967169;28;20035;-79
2022/02/19 03:08:22;;;;;;;12.23;3.03;;;4.60;70.90;;;;;;4963075;28;20034;-78
2022/02/19 03:10:48;;;;;;;13.18;3.20;;;4.60;70.60;;;;;;4966073;28;20458;-78
2022/02/19 03:13:14;;;;;;;13.20;2.58;;;4.60;70.90;;;;;;4961410;28;20038;-78
2022/02/19 03:15:40;;;;;;;11.70;2.88;;;4.70;70.80;;;;;;4974235;28;20046;-78
2022/02/19 03:18:06;;;;;;;12.77;2.53;;;4.60;70.90;;;;;;4970629;28;20463;-79
2022/02/19 03:20:33;;;;;;;17.83;2.88;;;4.60;71.10;;;;;;4967758;28;20402;-78
2022/02/19 03:22:59;;;;;;;15.57;2.58;;;4.50;71.30;;;;;;4964529;28;20047;-79
2022/02/19 03:25:25;;;;;;;16.65;2.70;;;4.50;71.50;;;;;;4971457;28;20049;-79
2022/02/19 03:27:51;;;;;;;14.48;3.30;;;4.50;71.70;;;;;;4949618;28;20101;-80
2022/02/19 03:30:17;;;;;;;14.60;3.17;;;4.50;71.80;;;;;;4962080;28;20492;-78
2022/02/19 03:32:43;;;;;;;13.73;2.40;;;4.50;71.70;;;;;;4961893;28;20471;-79
2022/02/19 03:35:10;;;;;;;12.75;2.80;;;4.50;72.00;;;;;;4967118;28;20031;-80
2022/02/19 03:37:38;;;;;;;13.55;3.10;;;4.50;72.10;;;;;;4963092;28;20023;-77
2022/02/19 03:40:06;;;;;;;18.02;3.45;;;4.40;72.20;;;;;;4961099;28;20053;-77
2022/02/19 03:42:39;;;;;;;10.60;3.20;;;4.40;72.60;;;;;;4968159;28;20620;-77
2022/02/19 03:45:08;;;;;;;14.27;3.30;;;4.50;72.40;;;;;;4965796;28;20273;-78
2022/02/19 03:47:35;;;;;;;15.18;2.58;;;4.50;72.40;;;;;;4969597;28;20026;-79
2022/02/19 03:50:04;;;;;;;12.70;3.40;;;4.60;72.30;;;;;;4971398;28;20049;-78
2022/02/19 03:52:30;;;;;;;14.05;3.05;;;4.50;72.50;;;;;;4968800;28;20041;-79
2022/02/19 03:54:55;;;;;;;13.07;2.72;;;4.50;72.40;;;;;;4970131;28;20361;-78
2022/02/19 03:57:21;;;;;;;29.65;3.67;;;4.50;72.50;;;;;;4968561;28;20082;-78
2022/02/19 03:59:47;;;;;;;9.02;2.30;;;4.50;72.50;;;;;;4963636;28;20053;-79
2022/02/19 04:02:12;;;;;;;17.13;3.30;;;4.50;72.60;;;;;;4974009;28;20110;-79
2022/02/19 04:04:38;;;;;;;12.38;3.00;;;4.50;72.50;;;;;;4948520;28;20031;-78
2022/02/19 04:07:04;;;;;;;14.80;2.38;;;4.60;72.40;;;;;;4958908;28;20035;-78
2022/02/19 04:09:30;;;;;;;13.38;2.65;;;4.50;72.50;;;;;;4970142;28;20035;-79
2022/02/19 04:11:55;;;;;;;11.68;2.72;;;4.50;72.40;;;;;;4969806;28;20027;-80
2022/02/19 04:14:21;;;;;;;14.40;2.88;;;4.60;72.00;;;;;;4967224;28;20073;-79
2022/02/19 04:16:46;;;;;;;14.18;3.15;;;4.50;72.00;;;;;;4968999;28;20069;-78
2022/02/19 04:19:12;;;;;;;15.55;2.67;;;4.60;71.90;;;;;;4962265;28;20034;-79
2022/02/19 04:21:38;;;;;;;14.00;2.60;;;4.50;71.90;;;;;;4962520;28;20037;-78
2022/02/19 04:24:04;;;;;;;15.90;2.80;;;4.60;71.50;;;;;;4961093;28;20062;-79
2022/02/19 04:26:29;;;;;;;15.55;3.65;;;4.60;71.50;;;;;;4952391;28;20036;-79
2022/02/19 04:28:55;;;;;;;13.95;4.05;;;4.60;71.10;;;;;;4969902;28;20153;-78
2022/02/19 04:31:21;;;;;;;16.55;3.67;;;4.70;70.90;;;;;;4975808;28;20058;-80
2022/02/19 04:33:46;;;;;;;14.35;3.30;;;4.70;70.80;;;;;;4965299;28;20061;-78
2022/02/19 04:36:12;;;;;;;13.68;2.90;;;4.60;70.90;;;;;;4970965;28;20034;-80
2022/02/19 04:38:37;;;;;;;15.45;3.50;;;4.60;71.10;;;;;;4949715;28;20034;-80
2022/02/19 04:41:03;;;;;;;16.55;3.10;;;4.70;70.70;;;;;;4963490;28;20490;-78
2022/02/19 04:43:29;;;;;;;17.65;3.15;;;4.70;70.80;;;;;;4976917;28;20033;-79
2022/02/19 04:45:54;;;;;;;14.35;2.67;;;4.70;70.80;;;;;;4974465;28;20137;-79
2022/02/19 04:48:20;;;;;;;14.52;3.42;;;4.70;70.90;;;;;;4972406;28;20138;-83
2022/02/19 04:50:46;;;;;;;10.05;3.05;;;4.70;70.90;;;;;;4971827;28;20046;-79
2022/02/19 04:53:11;;;;;;;15.35;3.42;;;4.70;71.00;;;;;;4961096;28;20117;-78
2022/02/19 04:55:37;;;;;;;15.80;3.25;;;4.70;70.90;;;;;;4963626;28;20035;-78
2022/02/19 04:58:03;;;;;;;12.55;2.92;;;4.70;71.00;;;;;;4971978;28;20195;-76
2022/02/19 05:00:29;;;;;;;16.50;3.33;;;4.70;71.20;;;;;;4961853;28;20046;-78
2022/02/19 05:02:54;;;;;;;13.13;2.75;;;4.60;71.50;;;;;;4960770;28;20425;-80
2022/02/19 05:05:20;;;;;;;13.00;3.10;;;4.70;71.80;;;;;;4944397;28;20035;-77
2022/02/19 05:07:46;;;;;;;13.18;2.83;;;4.60;71.80;;;;;;4961476;28;20474;-79
2022/02/19 05:10:12;;;;;;;16.08;3.28;;;4.60;71.90;;;;;;4960613;28;20062;-79
2022/02/19 05:12:46;;;;;;;11.82;2.97;;;4.70;72.10;;;;;;4960562;28;20395;-78
2022/02/19 05:15:13;;;;;;;;;;;4.60;72.10;;;;;;4965033;28;20444;-78
2022/02/19 05:17:50;;;;;;;14.10;3.20;;;4.50;72.30;;;;;;4963177;28;19957;-78
2022/02/19 05:20:23;;;;;;;16.40;3.88;;;4.50;72.60;;;;;;4969498;28;20042;-81
2022/02/19 05:22:49;;;;;;;13.60;2.97;;;4.50;72.60;;;;;;4961492;28;20586;-78
2022/02/19 05:25:16;;;;;;;20.67;3.47;;;4.40;72.90;;;;;;4961716;28;20035;-79
2022/02/19 05:27:42;;;;;;;14.48;3.50;;;4.40;72.80;;;;;;4973782;28;20061;-80
2022/02/19 05:30:08;;;;;;;13.90;3.25;;;4.40;73.10;;;;;;4963315;28;20045;-79
2022/02/19 05:32:34;;;;;;;13.85;2.50;;;4.30;73.10;;;;;;4947917;28;20027;-79
2022/02/19 05:35:00;;;;;;;15.75;3.03;;;4.30;73.20;;;;;;4972832;28;20469;-78
2022/02/19 05:37:31;;;;;;;11.70;3.13;;;4.20;73.20;;;;;;4978986;28;20038;-79
2022/02/19 05:39:57;;;;;;;12.82;3.42;;;4.20;73.50;;;;;;4966554;28;20039;-79
2022/02/19 05:42:24;;;;;;;17.92;3.42;;;4.10;73.60;;;;;;4970408;28;20478;-78
2022/02/19 05:44:50;;;;;;;22.98;3.80;;;4.00;73.90;;;;;;4964993;28;20049;-79
2022/02/19 05:47:19;;;;;;;17.67;2.97;;;4.10;74.00;;;;;;4957338;28;20039;-78
2022/02/19 05:49:46;;;;;;;17.00;3.83;;;4.10;73.90;;;;;;4967334;28;20475;-79
2022/02/19 05:52:12;;;;;;;16.33;4.00;;;4.00;74.40;;;;;;4965878;28;20130;-79
2022/02/19 05:54:37;;;;;;;19.38;3.97;;;4.10;74.50;;;;;;4953820;28;20115;-79
2022/02/19 05:57:03;;;;;;;15.00;3.47;;;4.00;74.60;;;;;;4968619;28;20584;-79
2022/02/19 05:59:29;;;;;;;25.75;3.72;;;4.00;74.50;;;;;;4970067;28;20093;-78
2022/02/19 06:01:55;;;;;;;17.40;4.30;;;4.00;74.80;;;;;;4966856;28;20051;-79
2022/02/19 06:04:21;;;;;;;13.57;3.47;;;4.00;74.80;;;;;;4951118;28;25212;-79
2022/02/19 06:06:46;;;;;;;18.38;4.15;;;3.90;75.10;;;;;;4971977;28;20038;-76
2022/02/19 06:09:12;;;;;;;19.95;3.78;;;4.00;75.30;;;;;;4966733;28;20051;-77
2022/02/19 06:11:40;;;;;;;16.45;3.63;;;3.90;75.60;;;;;;4965494;28;20395;-77
2022/02/19 06:14:06;;;;;;;19.35;3.85;;;3.90;76.00;;;;;;4967552;28;20065;-76
2022/02/19 06:16:31;;;;;;;15.10;3.65;;;3.80;76.20;;;;;;4969430;28;20047;-77
2022/02/19 06:18:57;;;;;;;20.70;4.20;;;3.80;76.30;;;;;;4971049;28;20097;-79
2022/02/19 06:21:23;;;;;;;21.90;4.47;;;3.80;76.40;;;;;;4996820;28;20022;-79
2022/02/19 06:23:48;;;;;;;17.05;3.70;;;3.70;76.60;;;;;;4978260;28;20026;-79
2022/02/19 06:26:14;;;;;;;20.48;4.18;;;3.70;76.70;;;;;;4989691;28;20047;-79
2022/02/19 06:28:39;;;;;;;17.95;3.90;;;3.70;77.10;;;;;;4964359;28;20050;-79
2022/02/19 06:31:05;;;;;;;22.98;4.50;;;3.70;77.20;;;;;;4972895;28;20080;-77
2022/02/19 06:33:31;;;;;;;21.45;4.10;;;3.70;77.50;;;;;;4967606;28;20031;-77
2022/02/19 06:35:57;;;;;;;21.15;4.47;;;3.70;77.60;;;;;;4964679;28;20129;-77
2022/02/19 06:38:22;;;;;;;16.65;4.15;;;3.70;77.80;;;;;;4963045;28;20042;-76
2022/02/19 06:40:48;;;;;;;14.73;3.53;;;3.70;77.70;;;;;;4969896;28;20047;-78
2022/02/19 06:43:14;;;;;;;16.88;3.47;;;3.70;77.60;;;;;;4970255;28;20031;-78
2022/02/19 06:45:40;;;;;;;19.08;4.70;;;3.80;77.60;;;;;;4966639;28;20050;-75
2022/02/19 06:48:06;;;;;;;19.65;4.00;;;3.70;77.80;;;;;;4969096;28;20069;-77
2022/02/19 06:50:32;;;;;;;19.05;4.28;;;3.80;77.50;;;;;;4967000;28;20070;-78
2022/02/19 06:52:58;;;;;;;15.65;4.15;;;3.80;77.40;;;;;;4943914;28;20101;-77
2022/02/19 06:55:24;;;;;;;15.80;4.50;;;3.90;77.20;;;;;;4959649;28;20035;-78
2022/02/19 06:57:50;;;;;;;16.58;4.05;;;3.90;77.00;;;;;;4967721;28;20399;-79
2022/02/19 07:00:16;;;;;;;22.10;3.97;;;4.00;76.80;;;;;;4972891;28;20047;-77
2022/02/19 07:02:42;;;;;;;17.02;4.95;;;4.10;76.80;;;;;;4971428;28;20101;-79
2022/02/19 07:05:08;;;;;;;15.27;4.22;;;4.10;76.40;;;;;;4973095;28;20045;-78
2022/02/19 07:07:35;;;;;;;12.57;3.63;;;4.10;76.40;;;;;;4971379;28;20030;-77
2022/02/19 07:10:02;;;;;;;17.23;4.00;;;4.10;76.60;;;;;;4971923;28;20038;-78
2022/02/19 07:12:27;;;;;;;15.52;4.40;;;4.00;76.70;;;;;;4960476;28;20054;-78
2022/02/19 07:14:53;;;;;;;14.68;3.97;;;4.00;77.10;;;;;;4968321;28;20626;-77
2022/02/19 07:17:19;;;;;;;19.13;3.90;;;3.90;77.20;;;;;;4974485;28;20215;-78
2022/02/19 07:19:44;;;;;;;17.50;4.38;;;3.90;77.50;;;;;;4958018;28;20537;-78
2022/02/19 07:22:10;;;;;;;19.05;4.38;;;3.90;77.70;;;;;;4954300;28;20043;-78
2022/02/19 07:24:36;;;;;;;21.67;4.03;;;3.80;77.90;;;;;;4952177;28;20471;-78
2022/02/19 07:27:02;;;;;;;18.25;4.10;;;3.90;77.90;;;;;;4958374;28;20081;-77
2022/02/19 07:29:28;;;;;;;19.05;3.85;;;3.90;78.10;;;;;;4958231;28;20050;-77
2022/02/19 07:31:54;;;;;;;23.35;5.53;;;3.90;78.10;;;;;;4958886;28;20138;-77
2022/02/19 07:34:22;;;;;;;16.40;4.63;;;3.90;78.20;;;;;;4957619;28;20407;-77
2022/02/19 07:36:47;;;;;;;16.20;4.38;;;3.90;78.20;;;;;;4944939;28;20070;-77
2022/02/19 07:39:13;;;;;;;18.25;4.22;;;3.90;78.10;;;;;;4962908;28;20439;-76
2022/02/19 07:41:39;;;;;;;20.75;3.97;;;3.90;78.30;;;;;;4957953;28;21026;-77
2022/02/19 07:44:06;;;;;;;19.40;3.90;;;3.80;78.40;;;;;;4942112;28;20034;-77
2022/02/19 07:46:31;;;;;;;17.25;4.15;;;3.80;78.70;;;;;;4969518;28;20050;-77
2022/02/19 07:58:17;;;;;;;18.08;4.35;;;3.80;78.80;;;;;;4961567;28;20034;-78
2022/02/19 07:59:56;;;;;;;17.08;4.20;;;3.90;79.00;;;;;;4964616;28;20089;-76
2022/02/19 08:02:22;;;;;;;17.05;4.30;;;4.00;79.00;;;;;;4944025;28;20398;-78
2022/02/19 08:04:48;;;;;;;20.15;4.40;;;4.00;79.00;;;;;;4960497;28;20100;-79
2022/02/19 08:07:13;;;;;;;18.25;4.10;;;4.10;78.90;;;;;;4968344;28;20100;-77
2022/02/19 08:09:39;;;;;;;15.75;4.35;;;4.10;78.70;;;;;;4951620;28;20045;-77
2022/02/19 08:12:08;;;;;;;16.52;4.25;;;4.20;78.80;;;;;;4956222;28;20034;-76
2022/02/19 08:14:34;;;;;;;19.30;4.28;;;4.30;78.90;;;;;;4966157;28;20517;-78
2022/02/19 08:16:59;;;;;;;19.80;4.75;;;4.30;79.00;;;;;;4966984;28;20054;-78
2022/02/19 08:19:25;;;;;;;12.98;3.65;;;4.40;78.90;;;;;;4937880;28;20045;-78
2022/02/19 08:21:51;;;;;;;17.05;3.80;;;4.60;78.90;;;;;;4958592;28;20050;-78
2022/02/19 08:24:16;;;;;;;19.02;4.50;;;4.60;79.00;;;;;;4959124;28;20073;-78
2022/02/19 08:26:42;;;;;;;14.68;3.78;;;4.70;78.90;;;;;;4959858;28;20355;-79
2022/02/19 08:29:08;;;;;;;17.58;4.63;;;4.80;78.80;;;;;;4960241;28;20394;-78
2022/02/19 08:31:36;;;;;;;14.95;3.33;;;4.90;78.70;;;;;;4957404;28;20027;-77
2022/02/19 08:34:02;;;;;;;16.40;3.42;;;5.10;78.60;;;;;;4950268;28;20046;-77
2022/02/19 08:36:27;;;;;;;20.13;4.20;;;5.20;78.10;;;;;;4951453;28;20039;-78
2022/02/19 08:38:53;;;;;;;17.17;3.88;;;5.40;77.60;;;;;;4952698;28;20043;-78
2022/02/19 08:41:19;;;;;;;18.90;4.47;;;5.60;77.20;;;;;;4941266;28;20043;-77
2022/02/19 08:43:44;;;;;;;13.15;3.95;;;5.70;76.50;;;;;;4959242;28;20478;-77
2022/02/19 08:46:10;;;;;;;16.23;3.80;;;5.90;75.90;;;;;;4957190;28;20447;-76
2022/02/19 08:48:36;;;;;;;13.32;3.38;;;5.90;75.50;;;;;;4952633;28;20049;-76
2022/02/19 08:51:01;;;;;;;14.07;3.42;;;6.00;75.60;;;;;;4961523;28;20058;-77
2022/02/19 08:53:27;;;;;;;13.48;3.58;;;6.10;75.20;;;;;;4957967;28;20050;-76
2022/02/19 08:55:54;;;;;;;22.20;3.65;;;6.30;75.10;;;;;;4943514;28;20112;-76
2022/02/19 08:58:21;;;;;;;16.38;3.40;;;6.50;74.60;;;;;;4957529;28;20051;-76
2022/02/19 09:00:47;;;;;;;13.80;2.95;;;6.60;74.60;;;;;;4948473;28;20150;-76
2022/02/19 09:03:12;;;;;;;13.65;3.55;;;6.80;74.30;;;;;;4954699;28;20030;-75
2022/02/19 09:05:38;;;;;;;15.27;3.67;;;7.00;74.10;;;;;;4957937;28;20038;-76
2022/02/19 09:08:04;;;;;;;15.82;5.20;;;7.10;73.70;;;;;;4961801;28;20027;-76
2022/02/19 09:10:29;;;;;;;16.40;4.13;;;7.30;73.10;;;;;;4962812;28;20089;-77
2022/02/19 09:12:55;;;;;;;13.40;3.63;;;7.40;73.10;;;;;;4976071;28;20137;-76
2022/02/19 09:15:23;;;;;;;16.42;5.45;;;7.50;73.00;;;;;;4954128;28;20070;-77
2022/02/19 09:17:51;;;;;;;15.00;5.15;;;7.60;72.20;;;;;;4954563;28;20366;-76
2022/02/19 09:20:19;;;;;;;18.85;8.10;;;7.70;72.00;;;;;;4955261;28;20042;-76
2022/02/19 09:22:45;;;;;;;31.27;15.40;;;7.80;71.60;;;;;;4956781;28;20657;-76
2022/02/19 09:25:11;;;;;;;20.88;8.38;;;7.90;71.60;;;;;;4957438;28;20046;-77
2022/02/19 09:27:37;;;;;;;28.55;15.48;;;8.00;70.90;;;;;;4975948;28;20039;-75
2022/02/19 09:30:09;;;;;;;23.85;9.15;;;8.00;70.70;;;;;;4974889;28;20034;-76
2022/02/19 09:32:39;;;;;;;18.10;6.10;;;8.10;70.10;;;;;;4971522;28;20042;-76
2022/02/19 09:35:06;;;;;;;16.00;4.28;;;8.20;70.10;;;;;;4939100;28;20037;-76
2022/02/19 09:37:33;;;;;;;14.45;4.40;;;8.40;70.20;;;;;;4958619;28;20031;-76
2022/02/19 09:39:59;;;;;;;15.23;4.50;;;8.50;69.60;;;;;;4954191;28;20083;-76
2022/02/19 09:42:25;;;;;;;15.25;3.95;;;8.60;69.00;;;;;;4953710;28;20114;-76
2022/02/19 09:44:52;;;;;;;11.25;3.97;;;8.80;68.30;;;;;;4947191;28;20092;-76
2022/02/19 09:47:25;;;;;;;13.82;3.28;;;8.80;67.60;;;;;;4962852;28;20042;-77
2022/02/19 09:49:51;;;;;;;10.25;3.60;;;9.00;67.50;;;;;;4957209;28;20034;-76
2022/02/19 09:52:17;;;;;;;12.15;3.50;;;8.90;67.50;;;;;;4954885;28;20031;-77
2022/02/19 09:54:43;;;;;;;14.77;2.90;;;9.00;66.20;;;;;;4950778;28;20500;-75
2022/02/19 09:57:08;;;;;;;16.90;3.60;;;9.00;65.60;;;;;;4962749;28;20590;-75
2022/02/19 09:59:34;;;;;;;14.38;3.10;;;9.10;66.30;;;;;;4942340;28;20245;-74
2022/02/19 10:02:04;;;;;;;18.38;4.30;;;9.10;66.00;;;;;;4966388;28;20541;-75
2022/02/19 10:04:31;;;;;;;15.70;2.92;;;9.10;65.80;;;;;;4965248;28;20041;-76
2022/02/19 10:07:14;;;;;;;14.25;3.38;;;9.10;65.60;;;;;;4948840;28;20070;-75
2022/02/19 10:09:46;;;;;;;18.80;3.63;;;9.10;65.20;;;;;;4945531;28;20061;-76
2022/02/19 10:12:14;;;;;;;14.63;3.90;;;9.10;65.80;;;;;;4961590;28;20054;-74
2022/02/19 10:14:42;;;;;;;14.82;3.50;;;9.10;65.70;;;;;;4961544;28;20051;-76
2022/02/19 10:17:08;;;;;;;13.60;3.05;;;9.20;66.00;;;;;;4972857;28;20138;-74
2022/02/19 10:19:56;;;;;;;12.23;4.10;;;9.40;66.00;;;;;;4968129;28;20107;-75
2022/02/19 10:22:26;;;;;;;15.32;3.25;;;9.50;64.70;;;;;;4969798;28;20114;-74
2022/02/19 10:24:57;;;;;;;12.40;3.00;;;9.60;65.10;;;;;;4965555;28;20034;-74
2022/02/19 10:27:39;;;;;;;12.55;3.00;;;9.60;64.40;;;;;;4968763;28;20035;-74
2022/02/19 10:30:06;;;;;;;10.35;2.63;;;9.70;64.80;;;;;;4969254;28;20128;-75
2022/02/19 10:32:51;;;;;;;11.07;2.85;;;9.70;64.10;;;;;;4968901;28;20518;-75
2022/02/19 10:35:19;;;;;;;11.80;2.65;;;9.60;62.90;;;;;;4966330;28;20038;-75
2022/02/19 10:37:50;;;;;;;11.50;3.35;;;9.60;63.00;;;;;;4974248;28;20038;-74
2022/02/19 10:40:34;;;;;;;11.40;2.75;;;9.60;62.90;;;;;;4979183;28;20125;-75
2022/02/19 10:43:04;;;;;;;12.30;2.80;;;9.60;62.30;;;;;;4971178;28;20031;-74
2022/02/19 10:45:31;;;;;;;16.35;3.15;;;9.70;61.90;;;;;;4966594;28;20506;-74
2022/02/19 10:48:13;;;;;;;13.10;2.97;;;9.70;62.80;;;;;;4977136;28;20137;-75
2022/02/19 10:50:39;;;;;;;13.20;2.80;;;9.80;62.80;;;;;;4950081;28;20376;-76
2022/02/19 10:53:06;;;;;;;11.02;3.35;;;9.90;63.30;;;;;;4944139;28;20042;-77
2022/02/19 10:55:33;;;;;;;11.73;2.92;;;9.90;62.80;;;;;;4972544;28;20109;-76
2022/02/19 10:58:04;;;;;;;11.65;3.15;;;10.00;63.10;;;;;;4968712;28;20039;-77
2022/02/19 11:00:36;;;;;;;11.88;3.00;;;10.10;62.90;;;;;;4955570;28;20046;-78
2022/02/19 11:03:04;;;;;;;16.35;3.20;;;10.10;63.40;;;;;;4962748;28;20057;-75
2022/02/19 11:05:30;;;;;;;10.80;2.60;;;9.80;63.10;;;;;;4965691;28;20047;-77
2022/02/19 11:07:58;;;;;;;13.15;2.65;;;9.90;62.10;;;;;;4963017;28;20051;-78
2022/02/19 11:10:24;;;;;;;10.70;2.85;;;10.10;62.10;;;;;;4962305;28;20039;-76
2022/02/19 11:12:50;;;;;;;16.35;2.95;;;10.20;60.30;;;;;;4968028;28;20043;-75
2022/02/19 11:15:19;;;;;;;11.95;2.75;;;10.20;59.60;;;;;;4969991;28;20059;-76
2022/02/19 11:17:50;;;;;;;12.25;2.83;;;10.30;58.80;;;;;;4973109;28;20385;-76
2022/02/19 11:20:17;;;;;;;12.05;2.50;;;10.40;59.50;;;;;;4960749;28;20046;-77
2022/02/19 11:22:44;;;;;;;11.05;2.80;;;10.50;59.90;;;;;;4970516;28;20086;-77
2022/02/19 11:25:20;;;;;;;12.27;2.90;;;10.60;58.90;;;;;;4971901;28;20081;-76
2022/02/19 11:27:55;;;;;;;12.52;2.97;;;10.70;58.50;;;;;;4983437;28;20579;-77
2022/02/19 11:30:23;;;;;;;11.70;2.38;;;10.80;58.10;;;;;;4966260;28;20120;-78
2022/02/19 11:32:52;;;;;;;13.23;2.78;;;10.70;57.20;;;;;;4971075;28;20125;-76
2022/02/19 11:35:35;;;;;;;12.00;2.80;;;10.60;57.60;;;;;;4963000;28;20042;-78
2022/02/19 11:38:02;;;;;;;14.07;3.50;;;10.60;57.30;;;;;;4960358;28;20034;-76
2022/02/19 11:40:44;;;;;;;13.73;2.70;;;10.60;57.70;;;;;;4961498;28;20042;-78
2022/02/19 11:43:37;;;;;;;10.45;2.88;;;10.60;58.20;;;;;;4963592;28;20033;-78
2022/02/19 11:46:15;;;;;;;13.65;3.20;;;10.70;58.20;;;;;;4971118;28;20081;-77
2022/02/19 11:48:51;;;;;;;11.23;3.13;;;10.70;57.60;;;;;;4962940;28;20046;-82
2022/02/19 11:51:26;;;;;;;14.43;3.20;;;10.70;58.10;;;;;;4962928;28;20059;-76
2022/02/19 11:54:06;;;;;;;13.50;3.30;;;10.90;58.70;;;;;;4943919;28;20528;-75
2022/02/19 11:56:32;;;;;;;13.70;2.90;;;11.10;58.70;;;;;;4963121;28;20406;-77
2022/02/19 11:59:01;;;;;;;17.88;6.95;;;11.10;57.90;;;;;;4965461;28;20039;-76
2022/02/19 12:01:28;;;;;;;18.98;3.70;;;10.80;57.70;;;;;;4944546;28;20038;-75
2022/02/19 12:04:10;;;;;;;12.18;3.08;;;10.80;58.40;;;;;;4965080;28;20065;-77
2022/02/19 12:06:40;;;;;;;16.75;3.08;;;10.90;59.70;;;;;;4969785;28;20042;-77
2022/02/19 12:09:08;;;;;;;10.02;2.50;;;11.10;59.60;;;;;;4965639;28;20046;-77
2022/02/19 12:11:50;;;;;;;11.48;2.70;;;11.20;58.10;;;;;;4964188;28;20045;-79
2022/02/19 12:14:56;;;;;;;14.35;3.13;;;11.30;58.10;;;;;;4956863;28;20072;-76
2022/02/19 12:17:23;;;;;;;9.70;3.00;;;11.40;57.50;;;;;;4966028;28;20039;-79
2022/02/19 12:19:51;;;;;;;13.32;3.45;;;11.40;57.30;;;;;;4965213;28;20035;-77
2022/02/19 12:22:33;;;;;;;13.68;3.20;;;11.20;57.50;;;;;;4964476;28;20613;-75
2022/02/19 12:25:00;;;;;;;12.20;2.95;;;11.00;58.10;;;;;;4952462;28;20364;-77
2022/02/19 12:27:26;;;;;;;15.35;3.10;;;10.60;59.50;;;;;;4962015;28;20035;-78
2022/02/19 12:30:32;;;;;;;13.82;2.90;;;10.50;60.60;;;;;;4965664;28;20061;-76
2022/02/19 12:32:59;;;;;;;12.88;3.35;;;10.30;63.20;;;;;;4970291;28;20157;-75
2022/02/19 12:35:40;;;;;;;13.57;3.10;;;10.00;65.10;;;;;;4967968;28;20473;-77
2022/02/19 12:38:07;;;;;;;11.95;2.97;;;9.80;66.10;;;;;;4946509;28;20034;-76
2022/02/19 12:40:33;;;;;;;13.57;3.17;;;9.70;66.50;;;;;;4971308;28;20437;-77
2022/02/19 12:42:59;;;;;;;8.57;2.78;;;9.50;66.40;;;;;;4953384;28;20038;-76
2022/02/19 12:45:25;;;;;;;10.77;2.67;;;9.60;66.40;;;;;;4964764;28;20600;-77
2022/02/19 12:47:53;;;;;;;11.38;2.80;;;9.60;66.10;;;;;;4961997;28;20114;-75
2022/02/19 12:50:20;;;;;;;14.10;3.67;;;9.50;65.40;;;;;;4952036;28;20364;-75
2022/02/19 12:52:51;;;;;;;11.32;3.20;;;9.30;66.90;;;;;;4963765;28;20042;-76
2022/02/19 12:55:20;;;;;;;11.35;2.78;;;9.20;69.80;;;;;;4962848;28;20034;-76